createdAt,value
2023-04-09T00:02:11.259Z,7.83
2023-04-09T00:09:46.514Z,9.20
2023-04-09T00:14:51.025Z,8.90
2023-04-09T00:17:17.858Z,9.23
2023-04-09T00:19:44.504Z,7.93
2023-04-09T00:22:11.292Z,7.97
2023-04-09T00:24:37.942Z,8.00
2023-04-09T00:27:04.807Z,8.40
2023-04-09T00:29:31.646Z,7.80
2023-04-09T00:37:06.897Z,8.27
2023-04-09T00:39:33.596Z,8.47
2023-04-09T00:42:03.120Z,8.23
2023-04-09T00:44:29.984Z,8.20
2023-04-09T00:49:36.291Z,8.10
2023-04-09T00:54:34.979Z,8.13
2023-04-09T00:57:01.972Z,8.87
2023-04-09T00:59:29.012Z,8.43
2023-04-09T01:07:18.921Z,8.60
2023-04-09T01:10:01.599Z,7.93
2023-04-09T01:12:54.807Z,8.43
2023-04-09T01:21:01.220Z,8.00
2023-04-09T01:29:50.145Z,9.00
2023-04-09T01:32:19.327Z,8.70
2023-04-09T01:34:48.156Z,9.03
2023-04-09T01:37:16.517Z,8.80
2023-04-09T01:39:43.588Z,8.90
2023-04-09T01:44:47.060Z,8.97
2023-04-09T01:47:14.213Z,10.13
2023-04-09T01:52:13.638Z,8.27
2023-04-09T01:57:11.842Z,8.57
2023-04-09T01:59:38.522Z,8.37
2023-04-09T02:04:49.511Z,8.77
2023-04-09T02:13:06.159Z,8.53
2023-04-09T02:15:36.821Z,8.87
2023-04-09T02:18:03.629Z,8.97
2023-04-09T02:23:02.164Z,8.10
2023-04-09T02:25:28.916Z,8.53
2023-04-09T02:30:26.845Z,7.83
2023-04-09T02:32:53.684Z,8.80
2023-04-09T02:35:20.329Z,8.27
2023-04-09T02:37:46.985Z,8.20
2023-04-09T02:40:13.749Z,7.80
2023-04-09T02:45:19.075Z,8.17
2023-04-09T02:47:45.830Z,8.03
2023-04-09T02:50:12.496Z,7.97
2023-04-09T02:52:39.115Z,8.50
2023-04-09T02:55:06.492Z,7.87
2023-04-09T02:57:33.803Z,8.10
2023-04-09T03:02:38.261Z,8.10
2023-04-09T03:05:05.729Z,11.53
2023-04-09T03:07:32.353Z,8.07
2023-04-09T03:12:31.286Z,9.43
2023-04-09T03:14:57.910Z,8.97
2023-04-09T03:17:27.676Z,8.13
2023-04-09T03:19:54.386Z,8.30
2023-04-09T03:22:21.046Z,10.43
2023-04-09T03:24:47.707Z,9.03
2023-04-09T03:27:14.619Z,8.27
2023-04-09T03:29:41.279Z,8.00
2023-04-09T03:34:39.180Z,8.70
2023-04-09T03:39:43.665Z,10.80
2023-04-09T03:42:10.273Z,8.23
2023-04-09T03:49:45.088Z,8.20
2023-04-09T03:52:11.741Z,7.97
2023-04-09T03:54:38.399Z,8.67
2023-04-09T03:57:05.032Z,7.67
2023-04-09T03:59:31.641Z,8.03
2023-04-09T04:04:30.780Z,8.13
2023-04-09T04:06:57.581Z,7.40
2023-04-09T04:09:24.227Z,8.00
2023-04-09T04:11:51.104Z,8.10
2023-04-09T04:14:17.799Z,7.97
2023-04-09T04:16:44.474Z,8.77
2023-04-09T04:19:11.288Z,8.23
2023-04-09T04:24:09.649Z,8.03
2023-04-09T04:26:36.308Z,8.63
2023-04-09T04:29:03.023Z,8.37
2023-04-09T04:31:29.746Z,11.40
2023-04-09T04:33:56.417Z,8.13
2023-04-09T04:36:23.069Z,15.07
2023-04-09T04:38:49.741Z,10.97
2023-04-09T04:43:48.091Z,9.57
2023-04-09T04:46:15.165Z,8.53
2023-04-09T04:48:41.846Z,7.13
2023-04-09T04:51:08.590Z,9.30
2023-04-09T04:53:35.287Z,7.83
2023-04-09T04:56:01.984Z,9.27
2023-04-09T04:58:29.604Z,9.30
2023-04-09T05:00:56.421Z,8.03
2023-04-09T05:03:24.726Z,7.40
2023-04-09T05:05:53.591Z,8.47
2023-04-09T05:08:20.252Z,9.47
2023-04-09T05:10:47.112Z,10.50
2023-04-09T05:18:16.565Z,8.97
2023-04-09T05:20:43.204Z,8.67
2023-04-09T05:25:44.599Z,12.00
2023-04-09T05:28:14.270Z,10.53
2023-04-09T05:30:41.186Z,8.83
2023-04-09T05:33:07.893Z,9.23
2023-04-09T05:35:39.003Z,8.40
2023-04-09T05:38:05.902Z,7.93
2023-04-09T05:40:32.667Z,9.13
2023-04-09T05:45:36.748Z,9.47
2023-04-09T05:48:03.710Z,7.60
2023-04-09T05:50:31.827Z,9.77
2023-04-09T05:55:33.957Z,7.93
2023-04-09T05:58:00.829Z,7.67
2023-04-09T06:00:27.500Z,13.87
2023-04-09T06:02:54.197Z,12.57
2023-04-09T06:05:20.992Z,9.23
2023-04-09T06:07:47.782Z,7.47
2023-04-09T06:10:14.567Z,7.80
2023-04-09T06:12:41.220Z,9.70
2023-04-09T06:15:08.081Z,8.10
2023-04-09T06:17:34.958Z,7.23
2023-04-09T06:22:39.149Z,8.27
2023-04-09T06:27:37.523Z,8.43
2023-04-09T06:30:04.447Z,8.73
2023-04-09T06:32:33.617Z,10.30
2023-04-09T06:35:04.940Z,7.80
2023-04-09T06:37:31.619Z,7.93
2023-04-09T06:40:01.378Z,8.23
2023-04-09T06:42:28.523Z,7.63
2023-04-09T06:44:55.405Z,8.27
2023-04-09T06:50:00.472Z,7.27
2023-04-09T06:52:27.138Z,7.90
2023-04-09T06:54:53.877Z,8.50
2023-04-09T06:57:20.731Z,8.53
2023-04-09T07:02:18.905Z,8.63
2023-04-09T07:04:45.877Z,11.20
2023-04-09T07:07:12.913Z,15.17
2023-04-09T07:09:39.600Z,13.13
2023-04-09T07:12:06.330Z,12.53
2023-04-09T07:14:33.012Z,8.30
2023-04-09T07:16:59.755Z,8.17
2023-04-09T07:19:26.460Z,10.80
2023-04-09T07:21:53.107Z,8.40
2023-04-09T07:26:58.156Z,8.03
2023-04-09T07:29:24.862Z,8.17
2023-04-09T07:31:51.833Z,7.33
2023-04-09T07:41:54.887Z,7.00
2023-04-09T07:44:21.488Z,7.23
2023-04-09T07:46:48.179Z,6.70
2023-04-09T07:49:14.907Z,5.90
2023-04-09T07:51:41.785Z,6.37
2023-04-09T07:54:09.147Z,5.57
2023-04-09T07:56:35.877Z,6.17
2023-04-09T07:59:02.636Z,6.23
2023-04-09T08:01:29.316Z,6.13
2023-04-09T08:03:56.172Z,6.37
2023-04-09T08:08:54.486Z,7.10
2023-04-09T08:11:25.418Z,7.13
2023-04-09T08:13:56.146Z,6.57
2023-04-09T08:16:24.736Z,6.13
2023-04-09T08:18:51.778Z,7.40
2023-04-09T08:23:50.332Z,6.27
2023-04-09T08:26:16.996Z,7.03
2023-04-09T08:28:43.986Z,6.60
2023-04-09T08:31:10.693Z,6.40
2023-04-09T08:38:47.355Z,5.90
2023-04-09T08:41:21.718Z,5.43
2023-04-09T08:43:57.630Z,5.83
2023-04-09T08:46:26.723Z,6.30
2023-04-09T08:48:53.974Z,5.97
2023-04-09T08:51:23.348Z,7.27
2023-04-09T08:53:56.786Z,6.10
2023-04-09T08:56:24.251Z,6.70
2023-04-09T08:58:51.454Z,5.90
2023-04-09T09:01:30.154Z,5.83
2023-04-09T09:04:05.071Z,5.87
2023-04-09T09:06:37.392Z,5.70
2023-04-09T09:09:07.969Z,4.70
2023-04-09T09:11:40.756Z,5.57
2023-04-09T09:14:10.395Z,5.70
2023-04-09T09:19:26.299Z,4.90
2023-04-09T09:22:00.715Z,5.50
2023-04-09T09:24:27.903Z,5.30
2023-04-09T09:26:54.919Z,5.90
2023-04-09T09:29:22.020Z,6.00
2023-04-09T09:31:51.360Z,5.30
2023-04-09T09:34:19.773Z,5.43
2023-04-09T09:36:47.394Z,4.83
2023-04-09T09:39:17.504Z,5.47
2023-04-09T09:44:33.580Z,4.60
2023-04-09T09:52:25.091Z,4.60
2023-04-09T09:54:53.628Z,4.53
2023-04-09T09:57:22.498Z,4.60
2023-04-09T10:00:04.658Z,4.20
2023-04-09T10:02:40.810Z,4.60
2023-04-09T10:05:08.913Z,4.40
2023-04-09T10:07:37.601Z,3.70
2023-04-09T10:10:06.355Z,4.00
2023-04-09T10:12:34.125Z,5.07
2023-04-09T10:15:04.936Z,4.20
2023-04-09T10:20:19.954Z,4.50
2023-04-09T10:25:22.062Z,4.07
2023-04-09T10:30:34.904Z,3.63
2023-04-09T10:33:14.893Z,4.80
2023-04-09T10:35:42.565Z,4.20
2023-04-09T10:38:10.841Z,4.30
2023-04-09T10:40:42.380Z,4.97
2023-04-09T10:43:10.282Z,4.33
2023-04-09T10:45:41.927Z,3.73
2023-04-09T10:48:14.885Z,3.90
2023-04-09T10:53:24.230Z,3.70
2023-04-09T10:55:52.209Z,3.33
2023-04-09T11:00:51.725Z,3.40
2023-04-09T11:06:09.470Z,4.00
2023-04-09T11:08:38.335Z,4.00
2023-04-09T11:11:05.173Z,3.60
2023-04-09T11:16:07.315Z,3.70
2023-04-09T11:18:35.304Z,3.50
2023-04-09T11:21:04.375Z,3.20
2023-04-09T11:23:32.927Z,3.47
2023-04-09T11:25:59.751Z,3.97
2023-04-09T11:28:26.660Z,4.57
2023-04-09T11:30:53.728Z,4.10
2023-04-09T11:33:20.852Z,4.00
2023-04-09T11:35:48.639Z,3.27
2023-04-09T11:38:15.570Z,3.90
2023-04-09T11:43:26.201Z,3.20
2023-04-09T11:45:53.768Z,3.53
2023-04-09T11:48:23.542Z,4.07
2023-04-09T11:50:50.946Z,3.47
2023-04-09T11:53:19.262Z,4.70
2023-04-09T11:55:51.678Z,3.20
2023-04-09T11:58:18.738Z,3.20
2023-04-09T12:05:50.915Z,3.20
2023-04-09T12:11:15.095Z,3.13
2023-04-09T12:13:45.516Z,3.00
2023-04-09T12:18:55.969Z,3.20
2023-04-09T12:21:27.780Z,3.00
2023-04-09T12:23:54.407Z,7.53
2023-04-09T12:26:21.195Z,3.20
2023-04-09T12:28:47.938Z,3.20
2023-04-09T12:31:14.641Z,3.57
2023-04-09T12:33:41.357Z,3.50
2023-04-09T12:38:46.219Z,3.00
2023-04-09T12:41:13.573Z,2.87
2023-04-09T12:43:40.226Z,3.60
2023-04-09T12:46:07.074Z,3.27
2023-04-09T12:48:34.146Z,3.07
2023-04-09T12:51:01.904Z,3.03
2023-04-09T12:53:28.784Z,3.03
2023-04-09T12:55:55.420Z,3.23
2023-04-09T12:58:22.120Z,3.20
2023-04-09T13:00:48.789Z,3.33
2023-04-09T13:03:17.197Z,3.50
2023-04-09T13:05:44.053Z,3.07
2023-04-09T13:08:10.688Z,3.60
2023-04-09T13:10:37.324Z,3.10
2023-04-09T13:13:04.038Z,3.50
2023-04-09T13:15:30.660Z,3.90
2023-04-09T13:17:57.367Z,3.70
2023-04-09T13:20:24.092Z,3.00
2023-04-09T13:22:51.204Z,2.53
2023-04-09T13:25:18.216Z,2.80
2023-04-09T13:27:44.900Z,6.43
2023-04-09T13:30:11.791Z,3.20
2023-04-09T13:32:38.564Z,2.90
2023-04-09T13:35:06.789Z,2.73
2023-04-09T13:37:33.438Z,2.93
2023-04-09T13:40:00.063Z,2.83
2023-04-09T13:42:26.770Z,3.00
2023-04-09T13:44:53.958Z,2.80
2023-04-09T13:47:21.379Z,3.07
2023-04-09T13:49:48.094Z,3.10
2023-04-09T13:52:14.776Z,3.40
2023-04-09T13:54:41.426Z,13.53
2023-04-09T13:57:08.211Z,12.97
2023-04-09T13:59:34.924Z,4.30
2023-04-09T14:04:33.012Z,3.70
2023-04-09T14:06:59.678Z,4.70
2023-04-09T14:09:26.405Z,3.50
2023-04-09T14:11:55.078Z,3.30
2023-04-09T14:14:21.813Z,3.43
2023-04-09T14:19:26.376Z,3.40
2023-04-09T14:24:25.910Z,3.40
2023-04-09T14:26:53.739Z,3.47
2023-04-09T14:31:58.688Z,3.57
2023-04-09T14:37:04.164Z,4.10
2023-04-09T14:39:31.006Z,4.07
2023-04-09T14:41:57.983Z,4.30
2023-04-09T14:44:27.558Z,4.97
2023-04-09T14:46:58.044Z,3.77
2023-04-09T14:49:24.961Z,3.93
2023-04-09T14:51:51.623Z,4.23
2023-04-09T14:54:18.291Z,3.50
2023-04-09T14:56:44.963Z,4.13
2023-04-09T14:59:11.659Z,3.63
2023-04-09T15:01:38.409Z,3.73
2023-04-09T15:04:05.207Z,3.70
2023-04-09T15:06:32.515Z,3.90
2023-04-09T15:08:59.200Z,3.70
2023-04-09T15:11:25.923Z,3.70
2023-04-09T15:13:52.653Z,3.63
2023-04-09T15:16:24.423Z,3.50
2023-04-09T15:18:52.675Z,3.70
2023-04-09T15:21:19.625Z,6.47
2023-04-09T15:26:21.078Z,3.97
2023-04-09T15:28:48.393Z,4.00
2023-04-09T15:31:15.136Z,4.67
2023-04-09T15:33:45.759Z,3.90
2023-04-09T15:36:12.476Z,5.57
2023-04-09T15:38:39.197Z,3.77
2023-04-09T15:41:05.905Z,3.83
2023-04-09T15:43:32.526Z,4.13
2023-04-09T15:45:59.261Z,4.00
2023-04-09T15:48:26.038Z,3.67
2023-04-09T15:50:52.672Z,4.00
2023-04-09T15:53:23.920Z,3.90
2023-04-09T15:55:50.615Z,3.73
2023-04-09T15:58:17.744Z,4.00
2023-04-09T16:00:44.513Z,3.83
2023-04-09T16:03:11.295Z,3.83
2023-04-09T16:05:38.097Z,3.97
2023-04-09T16:08:04.769Z,3.90
2023-04-09T16:10:31.571Z,4.13
2023-04-09T16:12:58.268Z,3.73
2023-04-09T16:15:25.029Z,4.40
2023-04-09T16:17:51.694Z,4.60
2023-04-09T16:20:18.398Z,4.27
2023-04-09T16:25:18.939Z,4.30
2023-04-09T16:27:45.735Z,3.80
2023-04-09T16:30:12.736Z,3.87
2023-04-09T16:32:39.548Z,3.60
2023-04-09T16:35:06.651Z,3.93
2023-04-09T16:37:35.265Z,4.07
2023-04-09T16:40:02.259Z,3.93
2023-04-09T16:42:30.571Z,3.63
2023-04-09T16:44:57.330Z,3.60
2023-04-09T16:47:24.008Z,3.57
2023-04-09T16:49:50.752Z,3.70
2023-04-09T16:52:17.393Z,3.40
2023-04-09T16:54:43.999Z,3.53
2023-04-09T16:57:10.628Z,5.40
2023-04-09T16:59:37.837Z,3.50
2023-04-09T17:02:04.650Z,3.70
2023-04-09T17:04:31.860Z,3.67
2023-04-09T17:06:59.015Z,3.73
2023-04-09T17:09:25.948Z,4.77
2023-04-09T17:11:53.501Z,3.83
2023-04-09T17:14:20.142Z,3.90
2023-04-09T17:16:47.117Z,3.80
2023-04-09T17:19:14.078Z,4.03
2023-04-09T17:21:41.107Z,4.23
2023-04-09T17:24:07.823Z,3.87
2023-04-09T17:26:34.881Z,3.57
2023-04-09T17:29:02.103Z,3.30
2023-04-09T17:31:29.215Z,4.20
2023-04-09T17:33:56.239Z,3.80
2023-04-09T17:36:23.155Z,4.53
2023-04-09T17:38:53.059Z,4.07
2023-04-09T17:41:19.937Z,4.07
2023-04-09T17:43:46.686Z,4.10
2023-04-09T17:46:13.391Z,4.10
2023-04-09T17:48:40.743Z,9.70
2023-04-09T17:51:07.593Z,4.90
2023-04-09T17:53:34.316Z,3.70
2023-04-09T17:56:03.310Z,4.27
2023-04-09T17:58:30.294Z,4.27
2023-04-09T18:00:56.934Z,11.13
2023-04-09T18:03:23.803Z,5.17
2023-04-09T18:05:51.039Z,7.07
2023-04-09T18:08:17.811Z,4.97
2023-04-09T18:10:44.455Z,4.33
2023-04-09T18:13:11.138Z,3.93
2023-04-09T18:15:37.820Z,4.10
2023-04-09T18:18:04.491Z,4.90
2023-04-09T18:20:31.195Z,4.27
2023-04-09T18:22:57.901Z,4.50
2023-04-09T18:25:24.697Z,4.20
2023-04-09T18:27:51.415Z,4.50
2023-04-09T18:30:18.209Z,4.80
2023-04-09T18:32:44.931Z,4.10
2023-04-09T18:35:11.717Z,5.07
2023-04-09T18:37:38.449Z,5.00
2023-04-09T18:40:12.524Z,4.50
2023-04-09T18:42:39.198Z,4.73
2023-04-09T18:45:06.129Z,4.70
2023-04-09T18:47:32.973Z,4.53
2023-04-09T18:49:59.597Z,5.97
2023-04-09T18:52:26.432Z,4.60
2023-04-09T18:54:53.148Z,4.90
2023-04-09T18:57:19.788Z,5.23
2023-04-09T18:59:46.786Z,4.80
2023-04-09T19:04:50.902Z,6.93
2023-04-09T19:07:19.696Z,6.17
2023-04-09T19:09:46.879Z,5.93
2023-04-09T19:12:13.593Z,5.60
2023-04-09T19:14:42.847Z,6.83
2023-04-09T19:17:09.604Z,13.50
2023-04-09T19:22:07.496Z,6.37
2023-04-09T19:24:34.162Z,5.10
2023-04-09T19:27:04.860Z,5.53
2023-04-09T19:29:31.608Z,5.13
2023-04-09T19:31:58.385Z,5.53
2023-04-09T19:34:25.176Z,5.47
2023-04-09T19:36:51.850Z,6.03
2023-04-09T19:39:19.095Z,5.57
2023-04-09T19:41:45.931Z,5.17
2023-04-09T19:49:22.334Z,6.20
2023-04-09T19:54:22.348Z,6.20
2023-04-09T19:56:48.997Z,7.30
2023-04-09T19:59:15.851Z,6.27
2023-04-09T20:01:43.574Z,5.30
2023-04-09T20:04:10.456Z,6.43
2023-04-09T20:06:37.326Z,5.60
2023-04-09T20:09:04.028Z,6.10
2023-04-09T20:11:30.727Z,6.37
2023-04-09T20:13:57.574Z,6.07
2023-04-09T20:16:24.274Z,6.00
2023-04-09T20:21:23.837Z,6.03
2023-04-09T20:23:50.577Z,6.47
2023-04-09T20:26:17.307Z,6.27
2023-04-09T20:28:43.975Z,6.50
2023-04-09T20:31:10.660Z,6.67
2023-04-09T20:33:37.316Z,6.30
2023-04-09T20:36:04.167Z,6.67
2023-04-09T20:38:30.864Z,7.30
2023-04-09T20:43:30.939Z,7.37
2023-04-09T20:45:57.665Z,6.50
2023-04-09T20:48:24.365Z,6.70
2023-04-09T20:50:51.272Z,7.00
2023-04-09T20:53:18.176Z,6.57
2023-04-09T20:55:46.117Z,8.33
2023-04-09T20:58:12.828Z,7.27
2023-04-09T21:00:39.501Z,7.10
2023-04-09T21:03:06.245Z,9.47
2023-04-09T21:05:33.135Z,7.23
2023-04-09T21:07:59.802Z,8.63
2023-04-09T21:10:26.454Z,7.53
2023-04-09T21:12:53.234Z,6.97
2023-04-09T21:15:19.916Z,6.87
2023-04-09T21:20:18.409Z,7.70
2023-04-09T21:22:45.103Z,7.43
2023-04-09T21:25:13.356Z,8.07
2023-04-09T21:27:41.851Z,7.90
2023-04-09T21:30:08.891Z,7.50
2023-04-09T21:32:35.617Z,8.53
2023-04-09T21:35:02.276Z,8.47
2023-04-09T21:37:29.561Z,7.83
2023-04-09T21:39:56.291Z,9.33
2023-04-09T21:42:23.253Z,9.30
2023-04-09T21:44:49.867Z,8.00
2023-04-09T21:47:16.596Z,7.97
2023-04-09T21:49:43.230Z,7.73
2023-04-09T21:52:15.031Z,8.07
2023-04-09T21:54:42.476Z,8.83
2023-04-09T21:57:09.610Z,7.80
2023-04-09T21:59:36.754Z,9.37
2023-04-09T22:02:04.863Z,7.97
2023-04-09T22:04:31.757Z,10.17
2023-04-09T22:06:58.485Z,7.67
2023-04-09T22:09:25.616Z,7.93
2023-04-09T22:11:53.183Z,8.00
2023-04-09T22:19:43.834Z,9.07
2023-04-09T22:22:12.421Z,9.27
2023-04-09T22:24:39.556Z,8.10
2023-04-09T22:27:06.230Z,7.33
2023-04-09T22:29:33.017Z,8.20
2023-04-09T22:31:59.773Z,8.30
2023-04-09T22:34:26.512Z,8.00
2023-04-09T22:36:53.266Z,7.87
2023-04-09T22:39:19.947Z,7.73
2023-04-09T22:41:46.597Z,8.23
2023-04-09T22:44:13.337Z,7.93
2023-04-09T22:46:39.992Z,8.47
2023-04-09T22:49:06.919Z,8.73
2023-04-09T22:51:36.893Z,9.53
2023-04-09T22:54:03.925Z,8.53
2023-04-09T22:56:33.686Z,8.20
2023-04-09T22:59:00.777Z,8.83
2023-04-09T23:01:28.105Z,7.80
2023-04-09T23:03:55.265Z,8.83
2023-04-09T23:06:22.906Z,8.53
2023-04-09T23:08:49.798Z,8.47
2023-04-09T23:11:16.608Z,7.13
2023-04-09T23:13:43.325Z,8.63
2023-04-09T23:16:10.899Z,9.37
2023-04-09T23:18:37.911Z,10.33
2023-04-09T23:21:11.165Z,8.27
2023-04-09T23:23:39.135Z,9.17
2023-04-09T23:26:06.310Z,8.90
2023-04-09T23:28:33.341Z,7.87
2023-04-09T23:31:00.262Z,9.40
2023-04-09T23:33:26.990Z,8.33
2023-04-09T23:35:53.686Z,8.63
2023-04-09T23:38:20.425Z,8.83
2023-04-09T23:43:19.977Z,8.93
2023-04-09T23:48:24.480Z,9.10
2023-04-09T23:53:25.548Z,9.63
2023-04-09T23:55:52.888Z,8.27
2023-04-09T23:58:21.451Z,9.00
